< < Back
Terminal Aerodrome Forecast


Current Version              Previous Versions:   1  2  3  4  5  6  7  8  9  

Terminal Aerodrome Forecast

129
FTUS42 KFFC 081127
TAFATL
TAF
KATL 081127Z 0812/0918 25005KT P6SM SCT050 BKN120
     FM081600 26009KT P6SM BKN045
     FM081800 27015G25KT P6SM SCT035 BKN050
      TEMPO 0818/0822 6SM -SHRA BKN035
     FM090000 30012G21KT P6SM OVC025 PROB30 0900/0906 6SM -SHSN
      BKN015=

Latest METAR

344
SAUS70 KWBC 081700 RRD
MTRATL
METAR KATL 081652Z 22009KT 10SM FEW040 BKN070 BKN100 BKN250 08/M02 A2982
RMK AO2 SLP101 VIRGA OHD-NE-SE T00781017


USA.gov is the U.S. government's official web portal to all federal, state and local government web resources and services.